Time;durP1;ratioP1;P1;durP2;ratioP2;P2;SDS_P1;SDS_P2;PMS_P1;PMS_P2;Temp;Humidity;BMP_temperature;BMP_pressure;BME280_temperature;BME280_humidity;BME280_pressure;Samples;Min_cycle;Max_cycle;Signal;HPM_P1;HPM_P2
2023/01/25 00:00:47;;;;;;;12.25;5.97;;;;;;;3.82;84.40;103088.97;5008892;28;20482;-69
2023/01/25 00:03:13;;;;;;;13.50;5.50;;;;;;;4.02;83.29;103089.22;4982881;28;20026;-68
2023/01/25 00:05:38;;;;;;;10.57;4.88;;;;;;;3.83;83.58;103091.41;4979470;28;20410;-68
2023/01/25 00:08:04;;;;;;;14.93;5.50;;;;;;;3.65;84.37;103083.72;4993760;28;20041;-68
2023/01/25 00:10:30;;;;;;;16.30;5.85;;;;;;;3.80;84.28;103086.56;5011189;28;20112;-68
2023/01/25 00:12:55;;;;;;;10.63;4.90;;;;;;;3.83;84.17;103067.44;5010803;28;20537;-68
2023/01/25 00:15:21;;;;;;;10.85;5.55;;;;;;;3.74;83.77;103068.91;5004322;28;20081;-68
2023/01/25 00:17:47;;;;;;;19.17;6.25;;;;;;;3.43;84.55;103056.28;5004534;28;20030;-68
2023/01/25 00:20:12;;;;;;;8.45;4.32;;;;;;;3.04;86.16;103057.34;5003642;28;20529;-68
2023/01/25 00:22:38;;;;;;;10.23;4.88;;;;;;;3.07;85.90;103060.31;5009779;28;20113;-68
2023/01/25 00:25:04;;;;;;;7.30;3.63;;;;;;;3.13;85.63;103064.69;5011711;28;20034;-68
2023/01/25 00:27:29;;;;;;;13.77;5.00;;;;;;;3.13;85.92;103067.34;4994282;28;20050;-68
2023/01/25 00:29:55;;;;;;;9.55;3.40;;;;;;;3.22;85.67;103063.19;5011230;28;20101;-68
2023/01/25 00:32:20;;;;;;;6.72;4.00;;;;;;;3.26;86.08;103060.84;4991418;28;20065;-68
2023/01/25 00:34:47;;;;;;;5.82;2.72;;;;;;;3.50;85.47;103044.38;4993129;28;20037;-69
2023/01/25 00:37:40;;;;;;;7.47;3.35;;;;;;;3.48;85.08;103040.38;4975364;28;20061;-68
2023/01/25 00:40:09;;;;;;;9.88;4.47;;;;;;;3.39;85.18;103057.81;4989384;28;20072;-68
2023/01/25 00:42:36;;;;;;;14.00;4.60;;;;;;;3.44;84.81;103047.25;4990457;28;20025;-68
2023/01/25 00:45:03;;;;;;;9.25;4.32;;;;;;;3.25;85.37;103044.06;5006217;28;20521;-68
2023/01/25 00:47:29;;;;;;;9.68;4.88;;;;;;;3.30;85.31;103038.00;5005401;28;20049;-68
2023/01/25 00:49:54;;;;;;;10.43;4.22;;;;;;;3.49;85.32;103037.47;4993081;28;20120;-68
2023/01/25 00:52:21;;;;;;;10.25;4.10;;;;;;;3.50;85.03;103041.72;4973899;28;20030;-68
2023/01/25 00:54:47;;;;;;;12.50;5.13;;;;;;;3.57;84.31;103037.03;4998995;28;20132;-68
2023/01/25 00:57:13;;;;;;;9.45;3.25;;;;;;;3.61;84.95;103026.66;4992086;28;20125;-68
2023/01/25 00:59:43;;;;;;;6.22;3.45;;;;;;;3.44;84.51;103024.09;4987728;28;20034;-68
2023/01/25 01:02:09;;;;;;;7.32;3.80;;;;;;;3.41;85.46;103021.91;4976527;28;20538;-68
2023/01/25 01:04:34;;;;;;;5.55;3.35;;;;;;;3.46;85.56;103016.66;4988807;28;20071;-68
2023/01/25 01:07:00;;;;;;;6.45;3.42;;;;;;;3.47;85.08;103026.25;4993329;28;20042;-69
2023/01/25 01:09:26;;;;;;;6.93;3.63;;;;;;;3.25;84.54;103020.09;4979027;28;20124;-68
2023/01/25 01:11:52;;;;;;;9.27;4.47;;;;;;;3.29;85.58;103015.09;4991270;28;20044;-68
2023/01/25 01:14:19;;;;;;;11.15;4.75;;;;;;;3.24;85.59;103012.38;4981978;28;20044;-68
2023/01/25 01:16:45;;;;;;;7.95;4.22;;;;;;;3.24;85.66;103013.19;4992697;28;20113;-68
2023/01/25 01:19:11;;;;;;;6.80;3.00;;;;;;;3.37;85.54;103022.63;4988162;28;20561;-68
2023/01/25 01:21:36;;;;;;;6.95;3.22;;;;;;;3.28;85.36;103008.97;5009794;28;20394;-68
2023/01/25 01:24:02;;;;;;;10.55;4.32;;;;;;;3.30;85.14;103017.53;4991011;28;20041;-68
2023/01/25 01:26:27;;;;;;;8.73;3.45;;;;;;;3.30;85.60;103012.19;5010226;28;20041;-68
2023/01/25 01:28:53;;;;;;;10.65;4.22;;;;;;;3.39;85.91;103017.88;4996853;28;20490;-68
2023/01/25 01:31:23;;;;;;;8.20;3.13;;;;;;;3.36;84.82;103010.41;5009631;28;20033;-68
2023/01/25 01:34:12;;;;;;;8.55;4.40;;;;;;;3.21;85.36;103007.56;5002497;28;20042;-68
2023/01/25 01:36:37;;;;;;;12.00;4.03;;;;;;;3.12;85.61;103019.66;4999160;28;20513;-66
2023/01/25 01:39:03;;;;;;;8.43;3.60;;;;;;;3.05;86.83;103011.88;4993773;28;20116;-68
2023/01/25 01:41:29;;;;;;;11.05;4.63;;;;;;;3.16;86.19;103008.28;5003143;28;20386;-68
2023/01/25 01:43:54;;;;;;;9.05;4.30;;;;;;;3.34;85.93;103015.16;4986764;28;20038;-68
2023/01/25 01:46:25;;;;;;;9.98;3.58;;;;;;;3.20;85.91;103012.06;4991847;28;20029;-68
2023/01/25 01:49:04;;;;;;;3.80;3.20;;;;;;;3.12;86.67;103009.81;4978451;28;20045;-68
2023/01/25 01:51:56;;;;;;;5.65;3.25;;;;;;;2.91;87.44;102999.97;4987902;28;20033;-68
2023/01/25 01:54:44;;;;;;;10.93;4.18;;;;;;;2.98;87.40;103005.91;5007997;28;20034;-68
2023/01/25 01:57:16;;;;;;;5.70;3.72;;;;;;;2.99;87.34;102998.72;4990230;28;20033;-68
2023/01/25 01:59:54;;;;;;;6.93;4.20;;;;;;;2.98;87.46;102992.59;5005020;28;20026;-68
2023/01/25 02:02:23;;;;;;;6.13;3.05;;;;;;;2.92;88.32;102992.78;4983839;28;20038;-68
2023/01/25 02:04:53;;;;;;;5.90;2.92;;;;;;;3.09;87.89;102999.69;4994121;28;20053;-68
2023/01/25 02:07:24;;;;;;;6.97;2.85;;;;;;;3.05;87.51;102995.09;4990749;28;20722;-69
2023/01/25 02:09:50;;;;;;;6.90;3.72;;;;;;;3.17;87.55;103001.91;5013198;28;20576;-68
2023/01/25 02:12:17;;;;;;;15.70;3.25;;;;;;;3.37;86.77;102988.03;4992810;28;20038;-68
2023/01/25 02:14:47;;;;;;;5.78;2.40;;;;;;;3.35;86.54;102998.13;4995355;28;20056;-68
2023/01/25 02:17:29;;;;;;;7.50;4.15;;;;;;;3.18;85.91;102981.41;4998800;28;20030;-68
2023/01/25 02:20:10;;;;;;;7.07;4.03;;;;;;;2.96;87.52;102973.41;5016755;28;20037;-68
2023/01/25 02:23:04;;;;;;;5.13;3.28;;;;;;;3.12;87.22;102980.53;4997620;28;20044;-68
2023/01/25 02:25:30;;;;;;;4.93;2.60;;;;;;;3.23;87.32;102979.59;4967830;28;20068;-68
2023/01/25 02:28:03;;;;;;;8.98;3.92;;;;;;;3.30;86.95;102977.59;5010327;28;20486;-69
2023/01/25 02:30:29;;;;;;;6.25;3.40;;;;;;;3.33;86.89;102974.41;4980248;28;20034;-68
2023/01/25 02:32:55;;;;;;;7.10;3.22;;;;;;;3.36;87.11;102981.91;5004666;28;20030;-69
2023/01/25 02:35:24;;;;;;;8.68;4.25;;;;;;;3.40;87.10;102974.22;4994595;28;20096;-69
2023/01/25 02:37:50;;;;;;;10.73;2.78;;;;;;;3.43;86.47;102963.06;5013987;28;20037;-68
2023/01/25 02:40:17;;;;;;;8.57;3.33;;;;;;;3.27;86.31;102970.06;4996832;28;20498;-68
2023/01/25 02:42:44;;;;;;;8.10;2.88;;;;;;;3.52;85.82;102978.34;4996683;28;20029;-68
2023/01/25 02:45:15;;;;;;;9.40;3.75;;;;;;;3.43;85.62;102963.88;4995096;28;20030;-68
2023/01/25 02:47:40;;;;;;;7.63;3.58;;;;;;;3.48;85.55;102963.94;5015077;28;20409;-69
2023/01/25 02:50:07;;;;;;;8.63;3.78;;;;;;;3.31;85.67;102971.19;4998088;28;20033;-68
2023/01/25 02:52:32;;;;;;;12.82;3.03;;;;;;;3.31;85.75;102965.09;4995151;28;20443;-69
2023/01/25 02:54:58;;;;;;;14.73;3.53;;;;;;;3.31;85.69;102965.09;4999116;28;20037;-69
2023/01/25 02:57:24;;;;;;;7.40;3.50;;;;;;;3.10;86.29;102952.56;4982657;28;20083;-68
2023/01/25 02:59:49;;;;;;;9.82;4.07;;;;;;;3.10;85.92;102952.56;5016171;28;20045;-68
2023/01/25 03:02:17;;;;;;;9.93;4.07;;;;;;;2.90;86.04;102953.13;4993702;28;20401;-68
2023/01/25 03:04:42;;;;;;;8.80;4.20;;;;;;;3.07;85.83;102951.22;4993085;28;20026;-68
2023/01/25 03:07:08;;;;;;;6.22;3.55;;;;;;;3.12;85.78;102943.28;4997478;28;20116;-68
2023/01/25 03:09:34;;;;;;;10.20;3.85;;;;;;;3.11;85.89;102933.72;4990890;28;20403;-68
2023/01/25 03:12:00;;;;;;;7.82;3.67;;;;;;;3.29;85.23;102941.34;4979166;28;20044;-68
2023/01/25 03:14:25;;;;;;;5.40;3.47;;;;;;;3.08;85.38;102941.38;4991901;28;20022;-68
2023/01/25 03:16:51;;;;;;;12.32;4.30;;;;;;;3.17;85.25;102929.25;4990793;28;20486;-69
2023/01/25 03:19:19;;;;;;;9.23;4.40;;;;;;;3.17;85.30;102921.25;4987266;28;20038;-68
2023/01/25 03:21:45;;;;;;;9.68;3.33;;;;;;;3.17;85.76;102932.72;4976940;28;20037;-69
2023/01/25 03:24:11;;;;;;;9.05;3.72;;;;;;;3.13;85.41;102928.94;4994848;28;20441;-68
2023/01/25 03:29:35;;;;;;;7.75;3.95;;;;;;;3.13;85.26;102920.16;4992518;28;20046;-68
2023/01/25 03:32:04;;;;;;;11.68;3.30;;;;;;;3.02;84.82;102919.22;4986981;28;20026;-69
2023/01/25 03:34:30;;;;;;;4.05;2.35;;;;;;;2.92;85.32;102907.66;4994877;28;20022;-68
2023/01/25 03:36:57;;;;;;;6.97;3.70;;;;;;;3.00;85.37;102907.22;4987393;28;20034;-69
2023/01/25 03:39:23;;;;;;;14.10;5.22;;;;;;;2.73;85.42;102894.66;4992132;28;20491;-68
2023/01/25 03:41:48;;;;;;;8.52;4.57;;;;;;;2.76;85.23;102896.00;5012045;28;20030;-68
2023/01/25 03:44:14;;;;;;;10.23;2.85;;;;;;;2.82;84.43;102897.69;5008802;28;20026;-69
2023/01/25 03:46:41;;;;;;;10.27;3.85;;;;;;;2.88;85.12;102899.38;5004395;28;20092;-68
2023/01/25 03:49:07;;;;;;;6.95;3.00;;;;;;;2.82;85.00;102902.19;4992723;28;20030;-69
2023/01/25 03:51:33;;;;;;;6.45;3.03;;;;;;;2.67;85.69;102903.59;5012423;28;20061;-69
2023/01/25 03:53:59;;;;;;;11.65;4.45;;;;;;;2.74;85.45;102893.59;5011267;28;20037;-69
2023/01/25 03:56:25;;;;;;;11.45;3.67;;;;;;;2.59;85.88;102897.91;4994278;28;20029;-69
2023/01/25 03:59:05;;;;;;;4.13;3.10;;;;;;;2.78;85.61;102901.91;4980409;28;20750;-68
2023/01/25 04:01:31;;;;;;;21.23;4.25;;;;;;;3.02;85.00;102897.91;4989187;28;20038;-68
2023/01/25 04:03:58;;;;;;;9.63;3.70;;;;;;;3.16;84.69;102903.66;4985614;28;20036;-69
2023/01/25 04:06:23;;;;;;;7.88;3.00;;;;;;;3.09;84.47;102893.22;4993709;28;20026;-69
2023/01/25 04:08:49;;;;;;;8.02;3.53;;;;;;;3.05;84.31;102889.47;4988714;28;20119;-68
2023/01/25 04:11:16;;;;;;;5.30;2.92;;;;;;;2.88;84.53;102896.72;4972697;28;20030;-69
2023/01/25 04:13:44;;;;;;;9.68;3.30;;;;;;;2.46;85.28;102896.41;4987053;28;20414;-69
2023/01/25 04:16:12;;;;;;;8.70;3.58;;;;;;;2.60;85.81;102897.66;4994012;28;20072;-69
2023/01/25 04:18:56;;;;;;;4.30;2.58;;;;;;;2.80;85.12;102886.50;4994957;28;20073;-69
2023/01/25 04:21:22;;;;;;;6.15;3.00;;;;;;;2.88;85.41;102880.75;4998191;28;20069;-69
2023/01/25 04:23:48;;;;;;;6.25;3.28;;;;;;;2.73;84.66;102886.66;4972789;28;20482;-68
2023/01/25 04:26:13;;;;;;;11.40;3.20;;;;;;;2.83;85.32;102880.66;4993982;28;20541;-68
2023/01/25 04:28:42;;;;;;;6.65;3.50;;;;;;;2.85;84.09;102873.25;5000008;28;20036;-69
2023/01/25 04:31:07;;;;;;;8.27;4.13;;;;;;;2.94;84.65;102874.44;5010659;28;20018;-68
2023/01/25 04:33:38;;;;;;;7.80;4.13;;;;;;;2.97;82.89;102862.47;4988608;28;20030;-69
2023/01/25 04:36:04;;;;;;;8.27;3.83;;;;;;;2.97;83.62;102876.59;4997237;28;20409;-68
2023/01/25 04:38:30;;;;;;;4.47;2.97;;;;;;;2.75;83.46;102867.78;4993552;28;20034;-68
2023/01/25 04:40:56;;;;;;;7.45;4.18;;;;;;;2.90;83.93;102865.34;4992696;28;20041;-68
2023/01/25 04:43:22;;;;;;;7.05;3.63;;;;;;;3.11;83.29;102864.50;4991361;28;20022;-68
2023/01/25 04:45:52;;;;;;;5.43;2.78;;;;;;;2.89;83.05;102853.06;4985942;28;20026;-68
2023/01/25 04:48:24;;;;;;;5.70;2.95;;;;;;;2.87;83.86;102860.50;4985229;28;20026;-69
2023/01/25 04:50:55;;;;;;;10.43;3.30;;;;;;;2.89;83.85;102852.25;5009723;23;20043;-71
2023/01/25 04:53:22;;;;;;;6.47;3.72;;;;;;;2.92;83.89;102852.59;5012153;28;20026;-68
2023/01/25 04:55:48;;;;;;;5.95;2.78;;;;;;;2.96;83.73;102851.00;5009662;28;20689;-68
2023/01/25 04:58:14;;;;;;;8.88;3.40;;;;;;;2.96;82.90;102850.22;4997475;28;20033;-68
2023/01/25 05:00:41;;;;;;;7.47;3.05;;;;;;;2.65;83.17;102843.75;4993537;28;20045;-68
2023/01/25 05:03:07;;;;;;;13.90;4.05;;;;;;;2.73;83.88;102830.81;4993589;28;20030;-68
2023/01/25 05:05:33;;;;;;;9.60;3.88;;;;;;;2.70;83.39;102841.97;4992886;28;20026;-68
2023/01/25 05:08:02;;;;;;;9.38;3.47;;;;;;;2.82;83.73;102833.03;5009341;28;20064;-68
2023/01/25 05:10:28;;;;;;;10.60;3.80;;;;;;;2.88;83.47;102827.53;5007171;28;20038;-68
2023/01/25 05:13:14;;;;;;;5.53;3.75;;;;;;;2.84;83.40;102830.94;4990700;28;20533;-68
2023/01/25 05:15:40;;;;;;;4.65;2.70;;;;;;;2.85;83.80;102833.34;5009379;28;20116;-68
2023/01/25 05:18:06;;;;;;;8.00;3.63;;;;;;;2.89;83.76;102834.47;5005187;28;20022;-68
2023/01/25 05:20:33;;;;;;;7.53;3.30;;;;;;;3.00;83.02;102830.84;4993751;28;20034;-68
2023/01/25 05:22:58;;;;;;;5.47;3.80;;;;;;;2.96;83.13;102828.94;5013172;28;20038;-68
2023/01/25 05:28:09;;;;;;;7.47;3.95;;;;;;;2.89;83.18;102823.00;5014846;28;20065;-68
2023/01/25 05:30:53;;;;;;;9.57;4.38;;;;;;;2.79;83.34;102821.03;4994617;28;20083;-68
2023/01/25 05:33:23;;;;;;;10.50;4.32;;;;;;;2.86;82.90;102816.34;4994380;28;20125;-68
2023/01/25 05:35:48;;;;;;;6.32;3.45;;;;;;;2.81;82.60;102813.59;4987167;28;20140;-68
2023/01/25 05:38:14;;;;;;;8.80;3.97;;;;;;;2.78;83.44;102813.31;5007184;28;20644;-68
2023/01/25 05:40:41;;;;;;;11.80;4.43;;;;;;;2.87;83.48;102817.13;5006967;28;20443;-68
2023/01/25 05:43:07;;;;;;;5.47;3.10;;;;;;;2.93;82.97;102802.81;5006938;28;20052;-71
2023/01/25 05:45:32;;;;;;;7.45;2.90;;;;;;;2.72;83.80;102807.94;5007403;28;20040;-68
2023/01/25 05:48:00;;;;;;;6.25;3.30;;;;;;;2.79;83.84;102801.63;5004114;28;20098;-68
2023/01/25 05:50:26;;;;;;;7.70;3.92;;;;;;;2.90;83.61;102806.00;4979457;28;20037;-68
2023/01/25 05:53:14;;;;;;;4.43;3.13;;;;;;;2.77;83.96;102807.19;5000588;28;20073;-68
2023/01/25 05:55:40;;;;;;;11.98;3.92;;;;;;;2.72;84.29;102807.13;5009096;28;20069;-68
2023/01/25 05:58:09;;;;;;;12.77;3.90;;;;;;;2.93;82.95;102793.00;5010186;28;20398;-68
2023/01/25 06:00:34;;;;;;;8.02;3.55;;;;;;;2.93;83.36;102798.31;4987626;28;20041;-67
2023/01/25 06:03:01;;;;;;;7.93;4.38;;;;;;;2.90;83.22;102798.84;5018423;28;20053;-68
2023/01/25 06:05:28;;;;;;;7.85;3.25;;;;;;;2.65;84.10;102799.34;4990388;28;20476;-70
2023/01/25 06:07:53;;;;;;;6.93;3.45;;;;;;;2.71;84.41;102785.03;5005350;28;20041;-68
2023/01/25 06:10:21;;;;;;;9.23;3.35;;;;;;;2.73;84.29;102790.09;5008491;28;20516;-68
2023/01/25 06:12:48;;;;;;;14.77;4.38;;;;;;;2.80;84.11;102776.63;5005283;28;20562;-68
2023/01/25 06:15:14;;;;;;;8.77;3.10;;;;;;;2.83;83.15;102782.25;5007675;28;20124;-68
2023/01/25 06:17:40;;;;;;;6.68;3.38;;;;;;;2.89;83.44;102793.75;5006735;28;20056;-68
2023/01/25 06:20:22;;;;;;;8.80;4.00;;;;;;;2.82;83.79;102779.84;5008219;28;20118;-68
2023/01/25 06:23:03;;;;;;;6.78;3.80;;;;;;;2.83;84.22;102787.56;5000274;28;20042;-68
2023/01/25 06:25:28;;;;;;;6.13;3.60;;;;;;;3.00;83.53;102777.63;5007803;28;20509;-68
2023/01/25 06:27:54;;;;;;;11.68;4.07;;;;;;;3.09;83.15;102786.78;5022831;28;20132;-68
2023/01/25 06:30:19;;;;;;;7.43;3.40;;;;;;;3.06;83.05;102794.47;5023586;28;20030;-70
2023/01/25 06:32:45;;;;;;;6.38;3.60;;;;;;;2.98;83.38;102789.59;5005468;28;20030;-68
2023/01/25 06:35:11;;;;;;;5.40;3.17;;;;;;;2.81;83.58;102786.22;5017244;28;20061;-69
2023/01/25 06:37:36;;;;;;;7.78;3.65;;;;;;;2.94;83.24;102786.66;5002150;28;20084;-68
2023/01/25 06:40:01;;;;;;;9.43;4.70;;;;;;;2.92;83.17;102799.38;5004525;28;20044;-68
2023/01/25 06:42:27;;;;;;;10.02;4.10;;;;;;;2.76;83.75;102784.31;5003561;28;20030;-68
2023/01/25 06:44:52;;;;;;;6.95;3.78;;;;;;;2.80;84.11;102793.41;5017102;28;20038;-68
2023/01/25 06:47:18;;;;;;;7.53;4.15;;;;;;;2.83;84.03;102795.53;5015214;28;20030;-68
2023/01/25 06:49:43;;;;;;;5.80;3.38;;;;;;;2.93;83.33;102800.97;5008917;28;20048;-68
2023/01/25 06:52:09;;;;;;;7.72;3.95;;;;;;;3.01;83.01;102794.41;5007744;28;20049;-69
2023/01/25 06:54:34;;;;;;;7.53;4.03;;;;;;;2.92;83.04;102799.38;5026748;28;20188;-69
2023/01/25 06:57:00;;;;;;;4.65;3.30;;;;;;;2.74;83.11;102805.03;5013020;28;20045;-68
2023/01/25 06:59:25;;;;;;;12.45;4.82;;;;;;;2.48;84.28;102798.59;5010696;28;20033;-69
2023/01/25 07:01:50;;;;;;;7.40;3.38;;;;;;;2.49;84.61;102804.72;5010473;28;20063;-68
2023/01/25 07:04:36;;;;;;;7.75;2.67;;;;;;;2.63;84.50;102796.13;5009485;28;20071;-69
2023/01/25 07:07:02;;;;;;;5.32;2.55;;;;;;;2.59;84.52;102796.88;4988827;28;20038;-68
2023/01/25 07:09:27;;;;;;;8.73;3.65;;;;;;;2.59;84.49;102797.66;4981725;28;20043;-68
2023/01/25 07:11:52;;;;;;;6.95;3.78;;;;;;;2.65;84.87;102782.59;4984459;28;20561;-69
2023/01/25 07:14:18;;;;;;;8.93;2.78;;;;;;;2.72;84.35;102783.19;4986167;28;20055;-68
2023/01/25 07:16:43;;;;;;;8.40;3.25;;;;;;;2.80;84.71;102782.75;4976989;28;20042;-69
2023/01/25 07:19:13;;;;;;;8.48;4.30;;;;;;;2.76;85.02;102784.31;4979201;28;20050;-68
2023/01/25 07:21:39;;;;;;;7.93;4.15;;;;;;;2.97;84.92;102777.34;4973373;28;20038;-68
2023/01/25 07:24:05;;;;;;;9.00;3.92;;;;;;;2.98;84.70;102771.75;4978151;28;20034;-68
2023/01/25 07:26:31;;;;;;;7.55;4.03;;;;;;;2.92;85.31;102769.31;4989661;28;20123;-68
2023/01/25 07:28:58;;;;;;;5.75;3.15;;;;;;;2.90;85.06;102761.59;4979524;28;20038;-69
2023/01/25 07:31:24;;;;;;;7.00;4.30;;;;;;;3.09;84.24;102773.47;4965241;28;20069;-69
2023/01/25 07:33:52;;;;;;;8.90;3.97;;;;;;;2.98;83.32;102766.44;4981461;28;20148;-69
2023/01/25 07:36:18;;;;;;;9.25;5.15;;;;;;;2.95;83.53;102758.97;4977173;28;20495;-68
2023/01/25 07:38:44;;;;;;;9.05;4.05;;;;;;;2.76;84.76;102757.72;4966029;28;20225;-69
2023/01/25 07:41:09;;;;;;;6.38;3.35;;;;;;;2.83;84.64;102755.66;4967525;28;20375;-68
2023/01/25 07:43:35;;;;;;;8.13;4.93;;;;;;;3.03;83.83;102757.72;4975548;28;20116;-68
2023/01/25 07:46:10;;;;;;;10.98;3.50;;;;;;;2.85;84.33;102750.88;5004371;28;20148;-71
2023/01/25 07:48:36;;;;;;;7.15;3.30;;;;;;;2.66;85.16;102741.66;5006522;28;20125;-70
2023/01/25 07:51:22;;;;;;;6.03;3.78;;;;;;;2.69;85.31;102741.16;5004883;28;20038;-70
2023/01/25 07:54:00;;;;;;;10.10;4.50;;;;;;;2.94;84.78;102741.41;5002126;28;20045;-70
2023/01/25 07:56:31;;;;;;;8.35;4.00;;;;;;;3.02;84.27;102753.47;5007234;28;20186;-70
2023/01/25 07:58:57;;;;;;;;;;;;;;;3.07;84.05;102748.97;5025496;28;20033;-71
2023/01/25 08:01:25;;;;;;;9.02;4.47;;;;;;;3.09;83.68;102738.06;5012145;28;19914;-70
2023/01/25 08:03:51;;;;;;;6.75;4.18;;;;;;;3.04;83.65;102740.69;5014128;28;20034;-70
2023/01/25 08:06:29;;;;;;;7.85;4.07;;;;;;;3.04;83.82;102730.84;4995456;28;20560;-70
2023/01/25 08:08:56;;;;;;;9.13;4.72;;;;;;;2.95;83.73;102721.72;4991549;28;20026;-69
2023/01/25 08:11:25;;;;;;;5.70;3.13;;;;;;;2.97;83.84;102724.13;4995726;28;20042;-70
2023/01/25 08:13:51;;;;;;;9.48;4.47;;;;;;;3.09;83.49;102716.78;4996276;28;20113;-70
2023/01/25 08:16:23;;;;;;;10.48;4.10;;;;;;;2.87;83.72;102713.38;4995324;28;20117;-70
2023/01/25 08:18:51;;;;;;;10.82;4.90;;;;;;;2.77;84.57;102713.31;5012296;28;20049;-70
2023/01/25 08:21:17;;;;;;;11.88;4.90;;;;;;;2.81;85.03;102709.09;5007115;28;20052;-69
2023/01/25 08:23:42;;;;;;;6.57;4.53;;;;;;;2.89;84.60;102712.09;5009330;28;20029;-69
2023/01/25 08:26:10;;;;;;;7.55;3.95;;;;;;;2.86;85.23;102706.47;5007009;28;20052;-70
2023/01/25 08:28:35;;;;;;;10.73;4.60;;;;;;;2.82;85.41;102700.84;5009817;28;20041;-69
2023/01/25 08:31:13;;;;;;;7.95;4.03;;;;;;;2.78;85.38;102699.75;5017666;28;20363;-69
2023/01/25 08:33:39;;;;;;;6.57;3.47;;;;;;;2.72;85.04;102688.25;5002419;28;20438;-69
2023/01/25 08:36:07;;;;;;;10.02;4.72;;;;;;;2.79;85.94;102698.69;5002186;28;20026;-69
2023/01/25 08:38:33;;;;;;;10.77;4.18;;;;;;;2.75;85.96;102700.25;4999914;28;20034;-69
2023/01/25 08:41:06;;;;;;;8.93;2.45;;;;;;;2.63;86.55;102697.72;5011650;28;21580;-70
2023/01/25 08:43:32;;;;;;;5.45;3.15;;;;;;;2.54;87.06;102693.13;4997259;28;20359;-69
2023/01/25 08:46:17;;;;;;;14.95;6.25;;;;;;;2.90;85.49;102691.63;4994769;28;20056;-69
2023/01/25 08:48:43;;;;;;;14.25;4.60;;;;;;;2.88;85.43;102686.56;4937207;28;20098;-69
2023/01/25 08:51:12;;;;;;;7.55;3.58;;;;;;;2.83;85.42;102675.06;4943715;28;20508;-70
2023/01/25 08:53:38;;;;;;;8.88;3.97;;;;;;;2.77;85.32;102692.81;4933866;29;20135;-70
2023/01/25 08:56:08;;;;;;;6.40;3.85;;;;;;;2.83;84.99;102669.75;4938805;29;20038;-70
2023/01/25 08:58:56;;;;;;;8.95;4.40;;;;;;;2.75;85.47;102669.13;4948784;29;20404;-70
2023/01/25 09:01:21;;;;;;;8.15;4.10;;;;;;;2.69;85.87;102666.69;4874845;29;20540;-70
2023/01/25 09:03:49;;;;;;;12.35;4.47;;;;;;;2.88;85.71;102661.81;4877577;29;20060;-70
2023/01/25 09:06:15;;;;;;;10.57;4.90;;;;;;;2.94;84.84;102656.28;4876341;29;20048;-70
2023/01/25 09:08:40;;;;;;;12.43;5.72;;;;;;;2.87;84.54;102657.53;4891814;29;20140;-69
2023/01/25 09:11:12;;;;;;;6.53;3.47;;;;;;;2.85;85.10;102657.78;4888590;29;20480;-70
2023/01/25 09:13:37;;;;;;;8.98;4.68;;;;;;;2.98;85.19;102643.28;4892388;29;20044;-70
2023/01/25 09:16:13;;;;;;;10.93;5.28;;;;;;;3.04;84.39;102650.25;4876423;29;20052;-70
2023/01/25 09:18:40;;;;;;;8.93;4.25;;;;;;;2.97;84.87;102644.31;4890800;29;20041;-70
2023/01/25 09:21:11;;;;;;;10.88;4.45;;;;;;;3.11;84.10;102643.63;4875759;29;20040;-70
2023/01/25 09:23:37;;;;;;;14.77;5.80;;;;;;;3.00;84.10;102647.25;4891535;29;20532;-69
2023/01/25 09:26:04;;;;;;;7.97;4.00;;;;;;;2.91;84.29;102630.16;4911198;29;20047;-69
2023/01/25 09:28:30;;;;;;;14.35;6.00;;;;;;;3.02;84.31;102642.47;4948813;29;20043;-69
2023/01/25 09:31:01;;;;;;;14.43;4.80;;;;;;;3.07;84.11;102633.75;4948241;29;20114;-70
2023/01/25 09:33:47;;;;;;;9.48;3.97;;;;;;;3.20;83.88;102642.09;4929577;29;20056;-69
2023/01/25 09:36:13;;;;;;;11.73;5.05;;;;;;;3.19;83.49;102647.69;4928179;28;20031;-69
2023/01/25 09:38:38;;;;;;;8.50;4.18;;;;;;;3.03;83.87;102630.00;4977174;28;20942;-70
2023/01/25 09:41:03;;;;;;;9.50;5.25;;;;;;;3.19;83.74;102639.69;4995649;28;20033;-70
2023/01/25 09:43:57;;;;;;;7.90;4.03;;;;;;;3.20;83.64;102634.09;4995197;28;20493;-70
2023/01/25 09:47:02;;;;;;;11.73;5.40;;;;;;;3.02;83.71;102633.72;5015905;28;20038;-70
2023/01/25 09:49:47;;;;;;;12.75;5.32;;;;;;;3.03;83.73;102641.44;4988676;28;20042;-71
2023/01/25 09:52:19;;;;;;;9.98;4.75;;;;;;;2.91;84.23;102624.03;5000732;28;20022;-69
2023/01/25 09:54:46;;;;;;;11.88;4.78;;;;;;;2.94;84.59;102628.88;4996026;28;20064;-69
2023/01/25 09:57:20;;;;;;;11.02;4.90;;;;;;;2.76;84.23;102627.38;5002173;28;20068;-70
2023/01/25 09:59:48;;;;;;;12.32;5.30;;;;;;;2.93;84.20;102620.06;4994563;28;20168;-70
2023/01/25 10:02:29;;;;;;;12.20;5.60;;;;;;;3.06;83.97;102616.19;5003825;28;20037;-69
2023/01/25 10:05:04;;;;;;;10.35;5.20;;;;;;;2.94;83.95;102613.72;5003501;28;20347;-69
2023/01/25 10:08:02;;;;;;;14.25;5.60;;;;;;;2.98;84.47;102603.34;4998192;28;20487;-69
2023/01/25 10:10:41;;;;;;;9.55;4.70;;;;;;;3.03;83.69;102606.84;4995120;28;20034;-69
2023/01/25 10:13:21;;;;;;;11.38;4.80;;;;;;;3.09;83.51;102613.81;5000392;28;20735;-69
2023/01/25 10:15:51;;;;;;;11.45;5.25;;;;;;;3.14;83.28;102607.72;5002076;28;20141;-69
2023/01/25 10:18:30;;;;;;;12.25;5.15;;;;;;;3.10;83.57;102609.28;4980143;28;20096;-69
2023/01/25 10:21:03;;;;;;;10.45;5.43;;;;;;;3.03;83.45;102606.84;4995001;28;20045;-68
2023/01/25 10:24:13;;;;;;;13.05;5.47;;;;;;;3.05;83.24;102593.28;5009680;28;20034;-70
2023/01/25 10:26:44;;;;;;;10.50;5.13;;;;;;;3.17;83.60;102589.38;4974090;28;20077;-69
2023/01/25 10:29:15;;;;;;;10.73;5.70;;;;;;;3.26;82.98;102579.84;5011621;28;20489;-70
2023/01/25 10:31:52;;;;;;;10.05;5.00;;;;;;;3.40;82.11;102570.34;5008064;28;20151;-69
2023/01/25 10:34:26;;;;;;;13.77;5.25;;;;;;;3.24;82.68;102566.00;4997915;28;20201;-69
2023/01/25 10:37:14;;;;;;;14.68;5.55;;;;;;;3.18;82.97;102566.22;4998983;28;20033;-70
2023/01/25 10:39:58;;;;;;;14.88;5.40;;;;;;;3.23;83.12;102564.38;5018996;28;20038;-70
2023/01/25 10:42:26;;;;;;;15.77;7.40;;;;;;;3.39;82.72;102560.75;5016985;28;20038;-69
2023/01/25 10:44:52;;;;;;;14.40;5.93;;;;;;;3.37;82.97;102554.88;5012772;28;20041;-69
2023/01/25 10:47:26;;;;;;;12.98;5.72;;;;;;;3.32;83.12;102552.22;5012695;28;20025;-69
2023/01/25 10:49:53;;;;;;;16.58;7.22;;;;;;;3.27;83.49;102548.72;5010209;28;20099;-70
2023/01/25 10:52:27;;;;;;;18.90;7.68;;;;;;;3.30;83.27;102553.50;5014325;22;20038;-68
2023/01/25 10:55:16;;;;;;;11.25;4.63;;;;;;;2.94;84.14;102543.75;4974985;28;20495;-67
2023/01/25 10:57:43;;;;;;;14.88;6.47;;;;;;;3.01;84.56;102537.13;4975371;28;20670;-68
2023/01/25 11:00:24;;;;;;;11.82;6.50;;;;;;;3.07;84.17;102529.97;4983285;28;20073;-68
2023/01/25 11:03:10;;;;;;;11.73;7.25;;;;;;;3.14;84.28;102534.00;4973152;28;20039;-68
2023/01/25 11:05:37;;;;;;;16.75;5.55;;;;;;;3.08;84.54;102529.72;4950344;28;20058;-68
2023/01/25 11:08:21;;;;;;;16.05;6.82;;;;;;;3.08;84.45;102529.72;4950595;29;20465;-68
2023/01/25 11:10:50;;;;;;;14.68;6.60;;;;;;;2.94;84.53;102520.59;4951630;29;20035;-68
2023/01/25 11:13:16;;;;;;;16.92;7.25;;;;;;;2.64;86.05;102512.41;4934218;29;20443;-68
2023/01/25 11:15:45;;;;;;;17.23;7.05;;;;;;;2.87;86.12;102508.56;4933861;28;20090;-68
2023/01/25 11:18:16;;;;;;;10.27;4.97;;;;;;;2.98;85.88;102499.59;4930949;28;20420;-67
2023/01/25 11:20:42;;;;;;;18.20;8.48;;;;;;;3.28;84.46;102495.22;4933935;28;20046;-67
2023/01/25 11:23:25;;;;;;;21.55;7.20;;;;;;;3.31;84.43;102485.94;4943881;28;20471;-68
2023/01/25 11:25:51;;;;;;;15.60;6.38;;;;;;;3.34;84.13;102488.88;4933535;29;20122;-68
2023/01/25 11:28:23;;;;;;;12.57;6.05;;;;;;;3.33;82.74;102481.13;4949965;28;20047;-68
2023/01/25 11:30:51;;;;;;;21.38;8.70;;;;;;;3.46;82.32;102478.78;4949312;28;20471;-70
2023/01/25 11:33:18;;;;;;;15.15;6.70;;;;;;;3.42;82.21;102475.06;4949528;28;20081;-68
2023/01/25 11:35:59;;;;;;;13.10;6.93;;;;;;;3.42;81.87;102466.25;4949652;28;20070;-69
2023/01/25 11:38:24;;;;;;;17.63;7.25;;;;;;;3.38;81.96;102465.97;4945933;28;20709;-68
2023/01/25 11:40:56;;;;;;;10.70;6.38;;;;;;;3.11;82.65;102457.38;4947714;28;20039;-69
2023/01/25 11:43:37;;;;;;;17.02;6.97;;;;;;;3.21;83.20;102444.09;4967676;28;20086;-68
2023/01/25 11:46:19;;;;;;;17.10;6.95;;;;;;;3.27;83.11;102443.03;4970027;28;20042;-68
2023/01/25 11:48:47;;;;;;;17.95;6.13;;;;;;;3.27;82.83;102442.25;4965167;28;20042;-68